Time;durP1;ratioP1;P1;durP2;ratioP2;P2;SDS_P1;SDS_P2;PMS_P1;PMS_P2;Temp;Humidity;BMP_temperature;BMP_pressure;BME280_temperature;BME280_humidity;BME280_pressure;Samples;Min_cycle;Max_cycle;Signal;HPM_P1;HPM_P2
2022/12/24 00:00:39;;;;;;;14.67;7.60;;;;;;;5.59;100.00;99452.00;5004291;28;20247;-71
2022/12/24 00:03:05;;;;;;;12.67;8.03;;;;;;;5.59;100.00;99451.16;4997734;28;20209;-71
2022/12/24 00:05:32;;;;;;;12.77;7.43;;;;;;;5.59;100.00;99453.75;5010982;28;20563;-71
2022/12/24 00:07:58;;;;;;;17.77;8.60;;;;;;;5.60;100.00;99442.53;5008514;28;20665;-71
2022/12/24 00:10:24;;;;;;;13.93;7.87;;;;;;;5.58;100.00;99440.00;5001158;28;20230;-71
2022/12/24 00:12:51;;;;;;;17.30;8.70;;;;;;;5.57;100.00;99446.03;5001757;28;20229;-71
2022/12/24 00:15:17;;;;;;;14.43;9.10;;;;;;;5.58;100.00;99446.91;4999519;28;20296;-71
2022/12/24 00:17:45;;;;;;;16.67;9.23;;;;;;;5.61;100.00;99436.47;4997643;28;20269;-71
2022/12/24 00:20:12;;;;;;;15.30;9.83;;;;;;;5.68;100.00;99435.41;5004362;28;20240;-71
2022/12/24 00:22:38;;;;;;;15.13;9.13;;;;;;;5.67;100.00;99442.34;5010826;28;20204;-71
2022/12/24 00:25:05;;;;;;;13.23;8.57;;;;;;;5.66;100.00;99442.38;5003425;28;20204;-71
2022/12/24 00:27:32;;;;;;;18.57;11.40;;;;;;;5.65;100.00;99440.69;5004222;28;20201;-71
2022/12/24 00:29:58;;;;;;;19.73;10.73;;;;;;;5.64;100.00;99445.00;5001541;28;20223;-71
2022/12/24 00:32:24;;;;;;;14.63;8.80;;;;;;;5.64;100.00;99444.16;5005657;28;20221;-71
2022/12/24 00:34:52;;;;;;;16.63;9.03;;;;;;;5.65;100.00;99451.03;5006731;28;20201;-71
2022/12/24 00:37:18;;;;;;;14.83;9.23;;;;;;;5.64;100.00;99438.97;5011985;28;20194;-71
2022/12/24 00:39:45;;;;;;;14.77;8.93;;;;;;;5.63;100.00;99439.88;5005126;28;20212;-70
2022/12/24 00:42:11;;;;;;;15.07;8.17;;;;;;;5.62;100.00;99436.44;5001586;28;20201;-71
2022/12/24 00:44:38;;;;;;;14.97;8.10;;;;;;;5.63;100.00;99438.13;5004417;28;20198;-71
2022/12/24 00:47:04;;;;;;;15.73;9.60;;;;;;;5.63;100.00;99437.28;5006512;28;21997;-71
2022/12/24 00:49:30;;;;;;;15.73;9.13;;;;;;;5.62;100.00;99433.00;5002010;28;20225;-71
2022/12/24 00:51:58;;;;;;;15.37;8.50;;;;;;;5.62;100.00;99436.44;5013837;28;20219;-70
2022/12/24 00:54:24;;;;;;;16.23;9.67;;;;;;;5.62;100.00;99435.59;5006318;28;20307;-71
2022/12/24 00:56:51;;;;;;;15.20;9.87;;;;;;;5.62;100.00;99433.00;5006634;28;20480;-71
2022/12/24 00:59:17;;;;;;;16.70;8.87;;;;;;;5.63;100.00;99429.53;5010095;28;20296;-70
2022/12/24 01:01:43;;;;;;;16.30;10.70;;;;;;;5.64;100.00;99431.22;5004742;28;20197;-71
2022/12/24 01:06:54;;;;;;;13.17;8.27;;;;;;;5.60;100.00;99439.94;5010259;28;20197;-71
2022/12/24 01:09:22;;;;;;;16.27;9.20;;;;;;;5.60;100.00;99437.38;5000735;28;20224;-71
2022/12/24 01:11:49;;;;;;;14.40;8.73;;;;;;;5.59;100.00;99444.25;5002933;28;20670;-71
2022/12/24 01:14:16;;;;;;;18.13;8.83;;;;;;;5.62;100.00;99443.34;5004801;28;20760;-71
2022/12/24 01:16:42;;;;;;;15.50;9.63;;;;;;;5.63;100.00;99443.31;5000825;28;20202;-70
2022/12/24 01:19:09;;;;;;;17.47;9.47;;;;;;;5.64;100.00;99447.56;4999244;28;20225;-71
2022/12/24 01:21:36;;;;;;;16.63;9.67;;;;;;;5.64;100.00;99446.72;5007515;28;20455;-71
2022/12/24 01:24:02;;;;;;;16.57;9.00;;;;;;;5.64;100.00;99457.91;5006965;28;20376;-71
2022/12/24 01:26:30;;;;;;;17.63;9.70;;;;;;;5.65;100.00;99462.22;5007241;28;20236;-71
2022/12/24 01:28:57;;;;;;;14.83;9.27;;;;;;;5.64;100.00;99460.50;5007759;28;20227;-70
2022/12/24 01:31:23;;;;;;;14.93;9.80;;;;;;;5.65;100.00;99466.56;5002539;28;20604;-70
2022/12/24 01:33:50;;;;;;;15.40;9.33;;;;;;;5.66;100.00;99471.69;5010430;28;20595;-71
2022/12/24 01:36:17;;;;;;;13.70;8.57;;;;;;;5.66;100.00;99470.81;5003902;28;20202;-70
2022/12/24 01:38:43;;;;;;;14.87;8.73;;;;;;;5.65;100.00;99472.56;5002982;28;20232;-71
2022/12/24 01:44:17;;;;;;;14.10;8.60;;;;;;;5.65;100.00;99480.31;5002460;28;20287;-71
2022/12/24 01:46:44;;;;;;;15.47;9.20;;;;;;;5.67;100.00;99485.47;5003407;28;20208;-71
2022/12/24 01:49:14;;;;;;;14.00;8.03;;;;;;;5.67;100.00;99490.63;5012129;28;20227;-71
2022/12/24 01:51:45;;;;;;;12.27;7.03;;;;;;;5.64;100.00;99485.53;5014823;28;20572;-70
2022/12/24 01:54:15;;;;;;;13.97;8.13;;;;;;;5.64;100.00;99495.88;5004022;28;20269;-71
2022/12/24 01:56:46;;;;;;;16.67;7.50;;;;;;;5.65;100.00;99492.41;5008351;28;20784;-71
2022/12/24 01:59:17;;;;;;;13.13;7.63;;;;;;;5.67;100.00;99500.97;5004826;28;20224;-71
2022/12/24 02:01:45;;;;;;;14.17;7.97;;;;;;;5.65;100.00;99497.59;5005124;28;20296;-71
2022/12/24 02:04:19;;;;;;;12.17;7.67;;;;;;;5.65;100.00;99497.59;5008419;28;20575;-71
2022/12/24 02:06:45;;;;;;;12.27;7.47;;;;;;;5.63;100.00;99500.19;5006609;28;20202;-71
2022/12/24 02:09:12;;;;;;;14.57;8.03;;;;;;;5.63;100.00;99502.78;5009962;28;20243;-70
2022/12/24 02:11:42;;;;;;;12.13;7.47;;;;;;;5.64;100.00;99506.22;5010241;28;20685;-70
2022/12/24 02:14:09;;;;;;;13.03;7.30;;;;;;;5.63;100.00;99520.06;5003322;28;20272;-71
2022/12/24 02:16:46;;;;;;;13.50;7.23;;;;;;;5.62;100.00;99514.00;5009998;28;20205;-71
2022/12/24 02:19:39;;;;;;;11.70;6.80;;;;;;;5.62;100.00;99516.59;5011660;28;20225;-71
2022/12/24 02:22:14;;;;;;;13.93;7.90;;;;;;;5.60;100.00;99520.13;5006004;28;20205;-71
2022/12/24 02:25:10;;;;;;;15.57;7.77;;;;;;;5.60;100.00;99514.94;5007987;28;20227;-70
2022/12/24 02:27:54;;;;;;;12.57;7.40;;;;;;;5.58;100.00;99525.31;5013820;28;20566;-71
2022/12/24 02:30:24;;;;;;;11.00;7.60;;;;;;;5.58;100.00;99522.72;5003169;28;20220;-71
2022/12/24 02:33:13;;;;;;;11.57;7.43;;;;;;;5.58;100.00;99529.66;5004952;28;20236;-71
2022/12/24 02:35:48;;;;;;;12.07;7.33;;;;;;;5.58;100.00;99533.06;5005256;28;20200;-70
2022/12/24 02:38:22;;;;;;;14.37;7.60;;;;;;;5.60;100.00;99533.03;4993855;28;20197;-70
2022/12/24 02:40:52;;;;;;;12.87;7.47;;;;;;;5.58;100.00;99538.25;5014086;28;20541;-70
2022/12/24 02:43:22;;;;;;;12.77;7.80;;;;;;;5.57;100.00;99544.28;5011964;28;20197;-70
2022/12/24 02:45:54;;;;;;;14.07;7.87;;;;;;;5.56;100.00;99540.03;5002658;28;20208;-71
2022/12/24 02:48:24;;;;;;;12.80;7.37;;;;;;;5.53;100.00;99540.09;5008406;28;20230;-70
2022/12/24 02:51:05;;;;;;;12.30;7.03;;;;;;;5.54;100.00;99548.69;5000906;28;20205;-71
2022/12/24 02:53:32;;;;;;;12.67;7.10;;;;;;;5.53;100.00;99560.78;5003728;28;20597;-71
2022/12/24 02:56:11;;;;;;;10.90;7.17;;;;;;;5.53;100.00;99560.78;5003747;28;20210;-70
2022/12/24 02:58:49;;;;;;;13.33;7.20;;;;;;;5.52;100.00;99555.63;5007465;28;20221;-70
2022/12/24 03:01:27;;;;;;;10.97;7.27;;;;;;;5.54;100.00;99559.91;5005416;28;20225;-70
2022/12/24 03:04:04;;;;;;;12.73;7.67;;;;;;;5.58;100.00;99565.84;5004760;28;20205;-70
2022/12/24 03:06:40;;;;;;;11.80;7.47;;;;;;;5.61;100.00;99556.28;5009036;28;20660;-70
2022/12/24 03:09:13;;;;;;;13.23;8.23;;;;;;;5.63;100.00;99571.78;5005043;28;20244;-70
2022/12/24 03:11:46;;;;;;;11.77;7.53;;;;;;;5.68;100.00;99578.53;5008624;28;20220;-70
2022/12/24 03:14:14;;;;;;;11.50;7.37;;;;;;;5.76;100.00;99583.53;4996165;28;20204;-71
2022/12/24 03:16:44;;;;;;;12.03;7.93;;;;;;;5.88;100.00;99580.66;5009119;28;20212;-70
2022/12/24 03:19:11;;;;;;;11.20;7.30;;;;;;;5.91;100.00;99586.63;5012788;28;21085;-70
2022/12/24 03:21:41;;;;;;;14.07;8.33;;;;;;;5.91;100.00;99594.38;5002798;28;20670;-71
2022/12/24 03:24:08;;;;;;;13.77;7.63;;;;;;;5.94;100.00;99597.75;5005461;28;20707;-71
2022/12/24 03:26:36;;;;;;;12.57;6.80;;;;;;;5.98;100.00;99603.75;5011082;28;20571;-70
2022/12/24 03:29:05;;;;;;;10.77;7.10;;;;;;;6.02;100.00;99606.22;5007309;28;20590;-70
2022/12/24 03:31:42;;;;;;;9.50;6.70;;;;;;;6.04;100.00;99606.19;5009165;28;20237;-70
2022/12/24 03:34:08;;;;;;;11.73;6.93;;;;;;;6.07;100.00;99604.38;5008149;28;20926;-70
2022/12/24 03:36:35;;;;;;;12.37;8.20;;;;;;;6.11;100.00;99612.09;5004835;28;20550;-70
2022/12/24 03:39:02;;;;;;;13.70;9.40;;;;;;;6.10;100.00;99615.56;5007540;28;20254;-71
2022/12/24 03:41:29;;;;;;;13.07;7.83;;;;;;;6.10;100.00;99620.72;5000442;28;20192;-70
2022/12/24 03:43:55;;;;;;;12.47;7.77;;;;;;;6.11;100.00;99625.03;4992860;28;20208;-70
2022/12/24 03:46:22;;;;;;;16.30;10.83;;;;;;;6.15;100.00;99626.66;5011606;28;20636;-70
2022/12/24 03:48:49;;;;;;;12.33;7.53;;;;;;;6.15;100.00;99630.06;5009205;28;20244;-71
2022/12/24 03:51:18;;;;;;;11.33;7.27;;;;;;;6.16;100.00;99630.94;4995886;28;20678;-71
2022/12/24 03:53:45;;;;;;;15.00;8.67;;;;;;;6.17;100.00;99640.41;5011497;28;20204;-70
2022/12/24 03:56:11;;;;;;;11.40;6.93;;;;;;;6.16;100.00;99633.53;5009716;28;20198;-71
2022/12/24 03:58:37;;;;;;;12.80;6.80;;;;;;;6.17;100.00;99645.56;5004295;28;20226;-70
2022/12/24 04:01:04;;;;;;;11.23;7.13;;;;;;;6.15;100.00;99647.34;5006011;28;20206;-71
2022/12/24 04:03:32;;;;;;;9.73;6.33;;;;;;;6.16;100.00;99662.00;5004951;28;20210;-71
2022/12/24 04:06:06;;;;;;;9.30;6.27;;;;;;;6.12;100.00;99663.81;5004586;28;20208;-71
2022/12/24 04:08:33;;;;;;;13.13;7.27;;;;;;;6.12;100.00;99673.28;5007996;28;20218;-70
2022/12/24 04:10:59;;;;;;;11.37;6.87;;;;;;;6.10;100.00;99683.69;5001097;28;20201;-71
2022/12/24 04:13:26;;;;;;;11.90;7.07;;;;;;;6.10;100.00;99683.69;5006716;28;20228;-70
2022/12/24 04:16:00;;;;;;;12.50;7.20;;;;;;;6.11;100.00;99687.13;5004054;28;20206;-71
2022/12/24 04:18:27;;;;;;;12.67;6.87;;;;;;;6.07;100.00;99687.19;5007013;28;20763;-71
2022/12/24 04:20:54;;;;;;;9.60;6.33;;;;;;;6.05;100.00;99696.75;5003627;28;20197;-71
2022/12/24 04:23:22;;;;;;;12.30;7.13;;;;;;;6.04;100.00;99697.63;5008581;28;20212;-71
2022/12/24 04:25:48;;;;;;;12.37;7.73;;;;;;;6.04;100.00;99692.44;5004230;28;20741;-70
2022/12/24 04:28:16;;;;;;;11.27;7.23;;;;;;;6.03;100.00;99713.16;5007573;28;20193;-70
2022/12/24 04:30:43;;;;;;;10.47;7.03;;;;;;;6.03;100.00;99708.00;5003709;28;20213;-71
2022/12/24 04:33:10;;;;;;;11.13;6.60;;;;;;;5.99;100.00;99707.22;5005165;28;20228;-71
2022/12/24 04:35:39;;;;;;;12.33;7.00;;;;;;;6.01;100.00;99709.78;5002965;28;20209;-71
2022/12/24 04:38:05;;;;;;;10.47;6.57;;;;;;;5.97;100.00;99708.16;5003034;28;20289;-71
2022/12/24 04:40:33;;;;;;;9.80;5.97;;;;;;;5.98;100.00;99715.88;5009300;28;20225;-70
2022/12/24 04:42:59;;;;;;;12.07;6.90;;;;;;;5.98;100.00;99726.22;5005088;28;20572;-71
2022/12/24 04:45:26;;;;;;;9.77;6.60;;;;;;;5.95;100.00;99722.81;5010331;28;20200;-70
2022/12/24 04:47:52;;;;;;;10.00;6.20;;;;;;;5.94;100.00;99728.88;5003931;28;20577;-70
2022/12/24 04:50:18;;;;;;;12.03;6.80;;;;;;;5.93;100.00;99728.03;5004191;28;20603;-71
2022/12/24 04:52:45;;;;;;;10.53;6.97;;;;;;;5.91;100.00;99729.81;5011673;28;20223;-71
2022/12/24 04:55:11;;;;;;;12.07;7.53;;;;;;;5.88;100.00;99729.84;5009658;28;20483;-70
2022/12/24 04:57:39;;;;;;;10.87;7.37;;;;;;;5.87;100.00;99743.66;5000391;28;20285;-70
2022/12/24 05:00:07;;;;;;;10.97;6.93;;;;;;;5.85;100.00;99741.09;5009567;28;20221;-70
2022/12/24 05:02:33;;;;;;;8.37;6.33;;;;;;;5.83;100.00;99736.88;5005642;28;20292;-70
2022/12/24 05:04:59;;;;;;;9.23;6.20;;;;;;;5.83;100.00;99744.63;5000738;28;20197;-71
2022/12/24 05:07:26;;;;;;;11.60;6.97;;;;;;;5.82;100.00;99746.38;5003131;28;20198;-70
2022/12/24 05:09:52;;;;;;;10.03;6.20;;;;;;;5.80;100.00;99749.84;5005324;28;20222;-71
2022/12/24 05:12:19;;;;;;;10.23;6.37;;;;;;;5.78;100.00;99752.47;5003709;28;20724;-70
2022/12/24 05:14:46;;;;;;;10.67;6.47;;;;;;;5.77;100.00;99760.25;5008992;28;20204;-70
2022/12/24 05:17:13;;;;;;;10.33;6.57;;;;;;;5.76;100.00;99767.16;5003080;28;20205;-71
2022/12/24 05:19:39;;;;;;;7.30;5.47;;;;;;;5.72;100.00;99762.97;5019766;23;20614;-74
2022/12/24 05:27:33;;;;;;;9.43;5.40;;;;;;;5.67;100.00;99788.06;4994664;28;20203;-74
2022/12/24 05:30:00;;;;;;;7.87;5.37;;;;;;;5.68;100.00;99779.41;4995812;28;20288;-74
2022/12/24 05:32:27;;;;;;;8.17;5.07;;;;;;;5.64;100.00;99788.94;4995456;28;20605;-74
2022/12/24 05:34:53;;;;;;;8.70;5.67;;;;;;;5.63;100.00;99796.75;4994548;28;20755;-73
2022/12/24 05:37:20;;;;;;;7.80;5.13;;;;;;;5.60;100.00;99805.41;4992581;28;20673;-74
2022/12/24 05:39:46;;;;;;;7.43;5.17;;;;;;;5.60;100.00;99810.59;4996202;28;20225;-73
2022/12/24 05:42:12;;;;;;;7.43;5.50;;;;;;;5.58;100.00;99819.28;4995558;28;20193;-73
2022/12/24 05:44:39;;;;;;;6.57;4.20;;;;;;;5.54;100.00;99823.66;4998376;28;20205;-74
2022/12/24 05:47:06;;;;;;;7.53;5.30;;;;;;;5.54;100.00;99833.13;4998556;28;20935;-73
2022/12/24 05:49:33;;;;;;;6.37;4.87;;;;;;;5.52;100.00;99840.06;4997524;28;20217;-74
2022/12/24 05:51:59;;;;;;;6.63;4.30;;;;;;;5.49;100.00;99846.16;4996346;28;20216;-73
2022/12/24 05:54:25;;;;;;;6.80;4.90;;;;;;;5.47;100.00;99841.00;4997401;28;20571;-73
2022/12/24 05:56:52;;;;;;;7.07;5.20;;;;;;;5.47;100.00;99840.13;4993133;28;20591;-74
2022/12/24 05:59:18;;;;;;;6.70;4.43;;;;;;;5.44;100.00;99850.53;4996834;28;20629;-75
2022/12/24 06:01:46;;;;;;;7.03;4.73;;;;;;;5.43;100.00;99851.41;4998886;28;20197;-73
2022/12/24 06:04:14;;;;;;;7.93;4.63;;;;;;;5.41;100.00;99854.00;4997438;28;20235;-73
2022/12/24 06:06:40;;;;;;;9.67;5.33;;;;;;;5.41;100.00;99851.44;4993111;28;20211;-75
2022/12/24 06:09:07;;;;;;;6.13;4.00;;;;;;;5.40;100.00;99854.91;4998258;28;20220;-75
2022/12/24 06:11:33;;;;;;;6.53;4.27;;;;;;;5.38;100.00;99861.84;4997018;28;20208;-75
2022/12/24 06:13:59;;;;;;;6.80;4.83;;;;;;;5.36;100.00;99857.56;4999162;28;20208;-75
2022/12/24 06:16:26;;;;;;;7.80;4.70;;;;;;;5.34;100.00;99870.50;4999367;28;20193;-74
2022/12/24 06:18:53;;;;;;;6.90;5.07;;;;;;;5.32;100.00;99865.38;4991071;28;20255;-74
2022/12/24 06:21:20;;;;;;;8.90;4.90;;;;;;;5.31;100.00;99870.56;4994907;28;20199;-75
2022/12/24 06:23:47;;;;;;;6.77;4.00;;;;;;;5.29;100.00;99875.78;4995987;28;20201;-74
2022/12/24 06:26:16;;;;;;;7.13;4.43;;;;;;;5.29;100.00;99887.81;4996823;28;20608;-75
2022/12/24 06:28:44;;;;;;;7.80;4.50;;;;;;;5.25;100.00;99888.78;5000285;28;20288;-74
2022/12/24 06:31:12;;;;;;;6.43;4.40;;;;;;;5.24;100.00;99894.81;4998902;28;20204;-74
2022/12/24 06:33:39;;;;;;;8.43;4.40;;;;;;;5.25;100.00;99905.13;4994782;28;20222;-74
2022/12/24 06:36:06;;;;;;;7.63;5.03;;;;;;;5.23;100.00;99912.06;4995411;28;20506;-73
2022/12/24 06:38:34;;;;;;;7.33;4.80;;;;;;;5.21;100.00;99916.41;5003147;28;20200;-75
2022/12/24 06:41:05;;;;;;;6.43;4.10;;;;;;;5.20;100.00;99916.41;4992984;28;20598;-75
2022/12/24 06:43:33;;;;;;;7.47;4.73;;;;;;;5.19;100.00;99927.63;4997303;28;20197;-73
2022/12/24 06:45:59;;;;;;;5.77;4.17;;;;;;;5.17;100.00;99924.22;4998917;28;20200;-74
2022/12/24 06:48:26;;;;;;;5.97;4.13;;;;;;;5.15;100.00;99924.22;5000532;28;20208;-73
2022/12/24 06:50:52;;;;;;;9.33;4.83;;;;;;;5.14;100.00;99927.72;4994645;28;20233;-75
2022/12/24 06:53:19;;;;;;;5.60;3.83;;;;;;;5.14;100.00;99948.38;5003732;28;20223;-72
2022/12/24 06:55:46;;;;;;;6.77;4.83;;;;;;;5.12;100.00;99948.41;4990672;28;20197;-72
2022/12/24 06:58:13;;;;;;;7.37;4.43;;;;;;;5.11;100.00;99951.00;5003655;28;21111;-74
2022/12/24 07:00:39;;;;;;;9.30;5.27;;;;;;;5.10;100.00;99954.44;5006691;28;20278;-76
2022/12/24 07:03:05;;;;;;;6.80;4.87;;;;;;;5.09;100.00;99956.19;5001299;28;20624;-76
2022/12/24 07:05:32;;;;;;;7.93;4.77;;;;;;;5.08;100.00;99958.78;4993312;28;20205;-76
2022/12/24 07:07:58;;;;;;;7.83;4.60;;;;;;;5.07;100.00;99957.09;5000523;28;20201;-74
2022/12/24 07:10:24;;;;;;;9.70;5.20;;;;;;;5.04;100.00;99959.72;5001102;28;20312;-76
2022/12/24 07:12:52;;;;;;;7.50;4.17;;;;;;;5.03;100.00;99956.28;4997613;28;20225;-75
2022/12/24 07:15:18;;;;;;;7.53;4.37;;;;;;;5.03;100.00;99958.00;5009433;28;20237;-76
2022/12/24 07:17:45;;;;;;;6.77;4.13;;;;;;;5.03;100.00;99976.09;4996515;28;20429;-76
2022/12/24 07:20:13;;;;;;;6.63;4.20;;;;;;;5.02;100.00;99972.66;4999698;28;20228;-77
2022/12/24 07:22:39;;;;;;;7.93;4.63;;;;;;;5.01;100.00;99968.34;5000750;28;20202;-76
2022/12/24 07:25:07;;;;;;;7.63;4.27;;;;;;;5.02;100.00;99983.00;4994090;28;20212;-76
2022/12/24 07:27:33;;;;;;;7.93;4.10;;;;;;;5.00;100.00;99979.56;5001932;28;20232;-77
2022/12/24 07:30:01;;;;;;;6.50;3.90;;;;;;;5.00;100.00;99987.31;4996943;28;20716;-76
2022/12/24 07:32:27;;;;;;;6.17;4.07;;;;;;;4.99;100.00;99995.94;5003272;28;20589;-76
2022/12/24 07:34:53;;;;;;;6.57;4.30;;;;;;;4.99;100.00;100011.44;4998838;28;20745;-75
2022/12/24 07:37:20;;;;;;;7.10;4.07;;;;;;;4.98;100.00;99994.25;4997515;28;20203;-77
2022/12/24 07:39:46;;;;;;;7.47;4.57;;;;;;;4.97;100.00;100002.88;5001757;28;20596;-77
2022/12/24 07:42:12;;;;;;;6.50;4.20;;;;;;;4.97;100.00;100013.19;4997220;28;20204;-76
2022/12/24 07:44:39;;;;;;;8.67;5.97;;;;;;;4.97;100.00;100015.78;5000668;28;20524;-76
2022/12/24 07:47:07;;;;;;;7.73;4.87;;;;;;;4.99;100.00;100013.19;4996992;28;20211;-73
2022/12/24 07:49:33;;;;;;;7.53;4.67;;;;;;;4.96;100.00;100024.44;5001553;28;20747;-77
2022/12/24 07:52:00;;;;;;;6.57;4.60;;;;;;;4.98;100.00;100024.38;5001081;28;20216;-76
2022/12/24 07:54:26;;;;;;;8.60;5.40;;;;;;;4.99;100.00;100023.50;4995261;28;20461;-76
2022/12/24 07:56:53;;;;;;;8.73;6.00;;;;;;;4.98;100.00;100020.09;5000436;28;20296;-77
2022/12/24 07:59:20;;;;;;;5.93;4.30;;;;;;;5.00;100.00;100017.50;5001486;28;20636;-77
2022/12/24 08:01:47;;;;;;;7.27;5.40;;;;;;;5.01;100.00;100024.34;5001262;28;20197;-76
2022/12/24 08:04:14;;;;;;;8.70;5.87;;;;;;;5.01;100.00;100027.78;5000479;28;20199;-77
2022/12/24 08:06:41;;;;;;;17.17;10.20;;;;;;;5.03;100.00;100033.81;4999647;28;20201;-75
2022/12/24 08:09:07;;;;;;;13.37;7.10;;;;;;;5.05;100.00;100037.22;4995572;28;20225;-76
2022/12/24 08:11:34;;;;;;;8.33;4.70;;;;;;;5.07;100.00;100032.03;4999565;28;20208;-77
2022/12/24 08:14:00;;;;;;;5.73;4.13;;;;;;;5.08;100.00;100038.91;4995110;28;20609;-75
2022/12/24 08:16:26;;;;;;;5.73;3.80;;;;;;;5.10;100.00;100047.47;5001323;28;20215;-76
2022/12/24 08:18:53;;;;;;;5.47;4.07;;;;;;;5.11;100.00;100042.28;4995454;28;20201;-75
2022/12/24 08:21:20;;;;;;;6.33;4.27;;;;;;;5.13;100.00;100050.03;5000859;28;20207;-77
2022/12/24 08:23:47;;;;;;;7.67;4.80;;;;;;;5.15;100.00;100044.84;5001199;28;20211;-76
2022/12/24 08:26:13;;;;;;;7.43;4.60;;;;;;;5.17;100.00;100045.66;5001260;28;20764;-76
2022/12/24 08:28:40;;;;;;;6.10;4.63;;;;;;;5.21;100.00;100057.69;5003418;28;20610;-76
2022/12/24 08:31:06;;;;;;;7.63;4.40;;;;;;;5.23;100.00;100051.63;5002049;28;20220;-77
2022/12/24 08:33:33;;;;;;;6.60;4.73;;;;;;;5.28;100.00;100059.31;4999287;28;20215;-75
2022/12/24 08:36:01;;;;;;;10.80;7.07;;;;;;;5.30;100.00;100057.56;4999833;28;20208;-75
2022/12/24 08:38:29;;;;;;;11.37;7.40;;;;;;;5.32;100.00;100073.91;4994779;28;20711;-77
2022/12/24 08:40:56;;;;;;;10.30;6.70;;;;;;;5.39;100.00;100077.28;4995740;28;20496;-73
2022/12/24 08:43:24;;;;;;;13.83;8.43;;;;;;;5.43;100.00;100077.19;4998714;28;20482;-77
2022/12/24 08:45:50;;;;;;;15.37;8.13;;;;;;;5.47;100.00;100067.66;4998788;28;20590;-76
2022/12/24 08:48:17;;;;;;;10.80;7.57;;;;;;;5.49;100.00;100074.53;5000812;28;20680;-75
2022/12/24 08:50:44;;;;;;;11.40;6.77;;;;;;;5.53;100.00;100079.69;4997405;28;20678;-75
2022/12/24 08:53:11;;;;;;;12.73;6.63;;;;;;;5.55;100.00;100093.44;5012167;28;20213;-75
2022/12/24 08:55:39;;;;;;;10.33;6.67;;;;;;;5.59;100.00;100101.09;4997567;28;20225;-77
2022/12/24 08:58:05;;;;;;;10.33;6.17;;;;;;;5.63;100.00;100096.78;4999773;28;20219;-76
2022/12/24 09:00:32;;;;;;;9.27;5.00;;;;;;;5.69;100.00;100089.75;5001725;28;20652;-76
2022/12/24 09:02:58;;;;;;;8.50;4.63;;;;;;;5.76;100.00;100097.44;5000911;28;20497;-75
2022/12/24 09:05:25;;;;;;;7.53;3.53;;;;;;;5.86;100.00;100107.63;5001734;28;20209;-77
2022/12/24 09:07:52;;;;;;;6.77;3.50;;;;;;;5.96;100.00;100116.16;5001426;28;20228;-77
2022/12/24 09:10:18;;;;;;;5.40;4.10;;;;;;;6.07;100.00;100119.41;4989720;28;20228;-76
2022/12/24 09:12:46;;;;;;;8.70;3.97;;;;;;;6.18;100.00;100126.16;4995943;28;20209;-73
2022/12/24 09:15:13;;;;;;;10.43;3.83;;;;;;;6.26;100.00;100126.88;4996104;28;20610;-77
2022/12/24 09:17:40;;;;;;;6.87;3.87;;;;;;;6.38;100.00;100125.81;4991528;28;20208;-77
2022/12/24 09:20:08;;;;;;;8.27;3.17;;;;;;;6.42;100.00;100124.88;4990557;28;20231;-77
2022/12/24 09:22:35;;;;;;;7.73;3.47;;;;;;;6.48;100.00;100132.56;4996382;28;20194;-77
2022/12/24 09:25:03;;;;;;;8.40;3.53;;;;;;;6.52;100.00;100138.53;5002217;28;20210;-76
2022/12/24 09:27:30;;;;;;;13.33;3.53;;;;;;;6.55;100.00;100141.09;5002117;28;20286;-75
2022/12/24 09:29:57;;;;;;;11.30;3.47;;;;;;;6.59;100.00;100141.00;5002053;28;20223;-75
2022/12/24 09:32:24;;;;;;;10.60;4.10;;;;;;;6.59;100.00;100147.91;4999554;28;20213;-76
2022/12/24 09:34:50;;;;;;;11.37;3.23;;;;;;;6.60;100.00;100149.63;4993524;28;20229;-75
2022/12/24 09:37:17;;;;;;;10.73;3.40;;;;;;;6.62;100.00;100148.72;4994604;28;20204;-76
2022/12/24 09:39:43;;;;;;;6.60;3.37;;;;;;;6.68;100.00;100159.84;4998796;28;20341;-73
2022/12/24 09:42:22;;;;;;;8.00;3.73;;;;;;;6.69;100.00;100162.41;4998740;28;20205;-77
2022/12/24 09:44:58;;;;;;;10.33;3.83;;;;;;;6.68;100.00;100171.06;4998072;28;20221;-77
2022/12/24 09:47:29;;;;;;;9.87;3.07;;;;;;;6.73;100.00;100165.81;4996412;28;20203;-77
2022/12/24 09:49:59;;;;;;;10.60;3.33;;;;;;;6.76;100.00;100166.59;4999564;28;20226;-75
2022/12/24 09:52:32;;;;;;;10.13;3.10;;;;;;;6.80;100.00;100159.63;4996735;28;20207;-77
2022/12/24 09:55:06;;;;;;;9.37;3.93;;;;;;;6.85;100.00;100168.19;5000130;28;20225;-76
2022/12/24 09:57:37;;;;;;;7.53;3.17;;;;;;;6.85;100.00;100168.19;4998548;28;20214;-76
2022/12/24 10:00:05;;;;;;;14.87;3.80;;;;;;;6.85;100.00;100175.97;5003235;28;20672;-75
2022/12/24 10:02:37;;;;;;;13.77;3.97;;;;;;;6.87;100.00;100175.94;4995913;28;20247;-75
2022/12/24 10:05:13;;;;;;;7.90;3.87;;;;;;;6.92;100.00;100180.16;4993675;28;20730;-75
2022/12/24 10:07:51;;;;;;;12.23;3.47;;;;;;;7.01;100.00;100185.16;4993725;28;20282;-75
2022/12/24 10:10:27;;;;;;;9.03;3.80;;;;;;;7.13;100.00;100171.13;4995586;28;20546;-77
2022/12/24 10:12:59;;;;;;;11.90;5.37;;;;;;;7.23;100.00;100183.88;5002613;28;20634;-76
2022/12/24 10:15:30;;;;;;;17.97;5.77;;;;;;;7.30;100.00;100188.06;5003127;28;20242;-73
2022/12/24 10:18:13;;;;;;;18.93;5.27;;;;;;;7.29;100.00;100189.81;5003383;28;20707;-72
2022/12/24 10:20:45;;;;;;;12.60;4.17;;;;;;;7.24;100.00;100185.63;5002509;28;20235;-74
2022/12/24 10:23:19;;;;;;;20.13;6.93;;;;;;;7.24;100.00;100188.22;4999666;28;20204;-73
2022/12/24 10:25:51;;;;;;;15.63;4.93;;;;;;;7.23;100.00;100196.84;5003831;28;20584;-72
2022/12/24 10:28:19;;;;;;;16.67;5.43;;;;;;;7.25;100.00;100202.91;5003823;28;20573;-74
2022/12/24 10:30:48;;;;;;;11.03;5.07;;;;;;;7.28;100.00;100197.63;5003621;28;20227;-72
2022/12/24 10:33:20;;;;;;;11.05;4.75;;;;;;;7.30;100.00;100211.41;5006576;28;20673;-74
2022/12/24 10:35:51;;;;;;;19.57;5.50;;;;;;;7.29;100.00;100218.34;5001687;28;20219;-74
2022/12/24 10:38:18;;;;;;;15.50;6.07;;;;;;;7.33;100.00;100221.72;4998547;28;20223;-74
2022/12/24 10:40:47;;;;;;;20.40;7.33;;;;;;;7.33;100.00;100227.75;5003003;28;20330;-75
2022/12/24 10:43:16;;;;;;;13.70;5.27;;;;;;;7.32;100.00;100236.44;4998545;28;20200;-74
2022/12/24 10:45:47;;;;;;;12.77;5.07;;;;;;;7.37;100.00;100226.84;5001193;28;20208;-76
2022/12/24 10:48:22;;;;;;;13.23;4.50;;;;;;;7.41;100.00;100238.00;5003676;28;20716;-76
2022/12/24 10:50:54;;;;;;;22.80;6.73;;;;;;;7.46;100.00;100243.97;4998500;28;20232;-73
2022/12/24 10:53:25;;;;;;;16.77;6.47;;;;;;;7.54;100.00;100249.00;4998269;28;20230;-75
2022/12/24 10:56:01;;;;;;;12.57;5.77;;;;;;;7.58;100.00;100248.91;5001813;28;20424;-76
2022/12/24 10:58:28;;;;;;;21.27;7.13;;;;;;;7.56;100.00;100257.59;5001245;28;20211;-76
2022/12/24 11:00:55;;;;;;;15.80;6.40;;;;;;;7.52;100.00;100258.56;4999076;28;20228;-76
2022/12/24 11:03:28;;;;;;;20.53;9.50;;;;;;;7.52;100.00;100268.94;4997885;28;20708;-76
2022/12/24 11:06:12;;;;;;;24.57;7.07;;;;;;;7.49;100.00;100269.88;4996613;28;20235;-76
2022/12/24 11:08:41;;;;;;;13.00;4.67;;;;;;;7.56;100.00;100278.34;4999695;28;20277;-76
2022/12/24 11:11:11;;;;;;;17.57;5.70;;;;;;;7.56;100.00;100276.63;4999623;28;20266;-74
2022/12/24 11:13:40;;;;;;;9.77;4.77;;;;;;;7.60;100.00;100295.59;5000352;28;20254;-74
2022/12/24 11:16:14;;;;;;;20.17;4.70;;;;;;;7.60;100.00;100295.59;5000882;28;20207;-76
2022/12/24 11:18:48;;;;;;;12.00;4.40;;;;;;;7.60;100.00;100298.19;4998140;28;20246;-76
2022/12/24 11:21:21;;;;;;;22.53;4.50;;;;;;;7.63;100.00;100305.91;4993262;28;20211;-76
2022/12/24 11:23:51;;;;;;;17.27;4.80;;;;;;;7.65;100.00;100311.94;5000197;28;20512;-76
2022/12/24 11:26:21;;;;;;;17.33;5.10;;;;;;;7.65;100.00;100314.53;5001566;28;20196;-76
2022/12/24 11:29:04;;;;;;;10.27;5.23;;;;;;;7.64;100.00;100317.16;5002318;28;20211;-76
2022/12/24 11:31:32;;;;;;;12.10;3.80;;;;;;;7.66;100.00;100315.38;5004596;28;20196;-76
2022/12/24 11:34:00;;;;;;;15.70;4.50;;;;;;;7.69;100.00;100318.75;4998244;28;20220;-76
2022/12/24 11:36:29;;;;;;;9.87;4.20;;;;;;;7.75;100.00;100335.94;4998587;28;20557;-76
2022/12/24 11:38:58;;;;;;;13.50;4.47;;;;;;;7.77;100.00;100327.28;4999016;28;20204;-76
2022/12/24 11:41:25;;;;;;;16.10;4.27;;;;;;;7.72;100.00;100329.09;5001331;28;20226;-76